Time;durP1;ratioP1;P1;durP2;ratioP2;P2;SDS_P1;SDS_P2;PMS_P1;PMS_P2;Temp;Humidity;BMP_temperature;BMP_pressure;BME280_temperature;BME280_humidity;BME280_pressure;Samples;Min_cycle;Max_cycle;Signal;HPM_P1;HPM_P2
2021/04/12 00:00:47;;;;;;;6.78;4.40;;;11.30;99.90;;;;;;4936681;29;20432;-53
2021/04/12 00:03:22;;;;;;;9.88;5.22;;;11.00;99.90;;;;;;4919621;29;20071;-45
2021/04/12 00:06:14;;;;;;;6.13;4.22;;;10.60;99.90;;;;;;4922059;29;20040;-57
2021/04/12 00:09:01;;;;;;;7.20;4.38;;;10.30;99.90;;;;;;4917631;29;20059;-54
2021/04/12 00:11:35;;;;;;;9.40;4.82;;;10.30;99.90;;;;;;4934030;28;20038;-56
2021/04/12 00:14:03;;;;;;;8.00;4.68;;;10.30;99.90;;;;;;4974913;28;20550;-52
2021/04/12 00:16:29;;;;;;;6.50;3.88;;;;;;;;;;4975017;28;20506;-52
2021/04/12 00:19:12;;;;;;;8.23;4.43;;;10.60;99.90;;;;;;4974730;28;20106;-52
2021/04/12 00:21:46;;;;;;;7.10;4.18;;;10.60;99.90;;;;;;4974708;28;20046;-52
2021/04/12 00:24:15;;;;;;;6.55;3.83;;;10.70;99.90;;;;;;5036647;28;20041;-55
2021/04/12 00:27:04;;;;;;;7.38;4.05;;;10.50;99.90;;;;;;5053561;28;20052;-55
2021/04/12 00:29:35;;;;;;;7.47;4.03;;;10.20;99.90;;;;;;5053535;28;20551;-50
2021/04/12 00:32:26;;;;;;;8.02;4.35;;;9.90;99.90;;;;;;5055540;28;20029;-50
2021/04/12 00:35:07;;;;;;;7.13;3.83;;;10.20;99.90;;;;;;5055450;28;20028;-49
2021/04/12 00:38:07;;;;;;;7.10;3.83;;;10.50;99.90;;;;;;5037083;28;20033;-51
2021/04/12 00:40:45;;;;;;;10.32;4.85;;;10.70;99.90;;;;;;5013406;28;20457;-57
2021/04/12 00:43:25;;;;;;;9.30;4.60;;;10.90;99.90;;;;;;5013365;28;20037;-54
2021/04/12 00:46:27;;;;;;;10.93;5.15;;;10.90;99.90;;;;;;5013419;28;20034;-54
2021/04/12 00:49:30;;;;;;;6.72;4.25;;;11.10;99.90;;;;;;4996802;28;20142;-52
2021/04/12 00:52:25;;;;;;;7.22;4.43;;;11.10;99.90;;;;;;4996851;28;20438;-54
2021/04/12 00:55:24;;;;;;;9.48;3.97;;;11.20;99.90;;;;;;5013127;28;20545;-58
2021/04/12 00:58:02;;;;;;;6.30;3.70;;;11.10;99.90;;;;;;5013131;28;20030;-48
2021/04/12 01:00:40;;;;;;;7.20;3.40;;;11.20;99.90;;;;;;5013015;28;20797;-51
2021/04/12 01:03:17;;;;;;;7.82;3.47;;;11.30;99.90;;;;;;4945284;28;20039;-55
2021/04/12 01:06:20;;;;;;;7.13;3.80;;;11.30;99.90;;;;;;4993178;28;20162;-54
2021/04/12 01:09:03;;;;;;;7.75;3.92;;;11.20;99.90;;;;;;4993349;28;20046;-57
2021/04/12 01:11:47;;;;;;;8.00;4.38;;;11.20;99.90;;;;;;4993303;28;20481;-58
2021/04/12 01:14:16;;;;;;;9.70;4.22;;;11.30;99.90;;;;;;4993414;28;20031;-48
2021/04/12 01:17:03;;;;;;;6.95;3.70;;;11.30;99.90;;;;;;5001368;28;20044;-49
2021/04/12 01:19:50;;;;;;;8.85;3.83;;;11.30;99.90;;;;;;5032581;28;20462;-54
2021/04/12 01:22:52;;;;;;;9.40;4.53;;;11.40;99.90;;;;;;5032460;28;20532;-54
2021/04/12 01:25:37;;;;;;;10.93;4.03;;;11.40;99.90;;;;;;5032130;28;20029;-51
2021/04/12 01:28:40;;;;;;;7.53;3.63;;;11.50;99.90;;;;;;5032342;28;20088;-49
2021/04/12 01:31:42;;;;;;;7.80;3.65;;;11.40;99.90;;;;;;5032329;28;20040;-54
2021/04/12 01:34:51;;;;;;;9.68;3.65;;;11.40;99.90;;;;;;5043520;28;20476;-50
2021/04/12 01:38:00;;;;;;;5.60;3.60;;;11.30;99.90;;;;;;5054259;28;20029;-59
2021/04/12 01:40:48;;;;;;;11.10;4.85;;;11.00;99.90;;;;;;5054327;28;20035;-56
2021/04/12 01:43:39;;;;;;;6.13;3.72;;;11.00;99.90;;;;;;5054036;28;20032;-55
2021/04/12 01:46:32;;;;;;;9.68;4.40;;;11.10;99.90;;;;;;5054063;28;20025;-52
2021/04/12 01:49:08;;;;;;;11.38;4.05;;;11.10;99.90;;;;;;5012147;28;20150;-48
2021/04/12 01:51:39;;;;;;;11.40;4.45;;;11.00;99.90;;;;;;5012221;28;20038;-50
2021/04/12 01:54:38;;;;;;;7.63;4.43;;;11.00;99.90;;;;;;5012183;28;20410;-52
2021/04/12 01:57:24;;;;;;;7.28;3.95;;;10.50;99.90;;;;;;4995668;28;20362;-53
2021/04/12 02:00:08;;;;;;;8.77;4.78;;;10.20;99.90;;;;;;5011887;28;20046;-51
2021/04/12 02:02:52;;;;;;;7.18;4.80;;;10.20;99.90;;;;;;5012214;28;20117;-51
2021/04/12 02:05:30;;;;;;;8.13;4.38;;;9.90;99.90;;;;;;5011848;28;20120;-48
2021/04/12 02:08:22;;;;;;;7.75;4.18;;;9.70;99.90;;;;;;5011985;28;20025;-52
2021/04/12 02:11:00;;;;;;;5.32;3.35;;;9.60;99.90;;;;;;5012111;28;20041;-51
2021/04/12 02:13:53;;;;;;;4.53;2.42;;;9.60;99.90;;;;;;5011708;28;20121;-53
2021/04/12 02:16:30;;;;;;;4.95;2.92;;;9.30;99.90;;;;;;5011591;28;20120;-54
2021/04/12 02:19:01;;;;;;;4.97;2.80;;;9.10;99.90;;;;;;5011390;28;20046;-54
2021/04/12 02:21:30;;;;;;;7.45;2.97;;;;;;;;;;5011631;28;20433;-52
2021/04/12 02:24:33;;;;;;;3.63;2.30;;;8.80;99.90;;;;;;5011863;28;20092;-56
2021/04/12 02:27:04;;;;;;;5.13;2.45;;;9.00;99.90;;;;;;5049779;28;20108;-50
2021/04/12 02:29:55;;;;;;;7.40;3.13;;;9.30;99.90;;;;;;5051426;28;20048;-54
2021/04/12 02:32:40;;;;;;;7.20;3.60;;;9.50;99.90;;;;;;5053422;28;20128;-54
2021/04/12 02:35:23;;;;;;;5.07;2.45;;;9.10;99.90;;;;;;5051517;28;20391;-57
2021/04/12 02:38:16;;;;;;;5.85;2.67;;;8.60;99.90;;;;;;5053218;28;20479;-56
2021/04/12 02:41:12;;;;;;;5.30;2.75;;;8.50;99.90;;;;;;5053247;28;20079;-56
2021/04/12 02:43:47;;;;;;;6.10;2.50;;;8.80;99.90;;;;;;5051064;28;20125;-56
2021/04/12 02:46:50;;;;;;;3.38;2.60;;;9.10;99.90;;;;;;5053261;28;20032;-50
2021/04/12 02:49:49;;;;;;;6.03;2.83;;;9.40;99.90;;;;;;5053012;28;20124;-52
2021/04/12 02:52:33;;;;;;;6.57;3.30;;;9.30;99.90;;;;;;5053051;28;20036;-52
2021/04/12 02:55:32;;;;;;;6.25;2.83;;;9.30;99.90;;;;;;5053106;28;20376;-56
2021/04/12 02:58:22;;;;;;;6.13;3.28;;;9.20;99.90;;;;;;5053078;28;20036;-56
2021/04/12 03:01:03;;;;;;;5.70;3.35;;;8.30;99.90;;;;;;5053056;28;20123;-48
2021/04/12 03:03:53;;;;;;;8.18;3.83;;;7.90;99.90;;;;;;5053046;28;20075;-53
2021/04/12 03:06:31;;;;;;;7.35;3.75;;;7.90;99.90;;;;;;5053025;28;20376;-53
2021/04/12 03:09:15;;;;;;;8.80;4.75;;;7.90;99.90;;;;;;5053043;28;20460;-48
2021/04/12 03:12:04;;;;;;;5.88;3.55;;;7.90;99.90;;;;;;5052973;28;20029;-49
2021/04/12 03:15:06;;;;;;;8.63;3.17;;;7.80;99.90;;;;;;5053086;28;20051;-56
2021/04/12 03:18:04;;;;;;;8.60;3.88;;;7.70;99.90;;;;;;5052898;28;20431;-58
2021/04/12 03:20:56;;;;;;;5.85;3.33;;;7.90;99.90;;;;;;5052840;28;20032;-60
2021/04/12 03:23:45;;;;;;;7.00;3.97;;;8.00;99.90;;;;;;5053131;28;20055;-53
2021/04/12 03:26:41;;;;;;;7.47;3.35;;;8.00;99.90;;;;;;5052744;28;20060;-50
2021/04/12 03:29:18;;;;;;;6.65;3.53;;;7.60;99.90;;;;;;5054980;28;20033;-45
2021/04/12 03:31:48;;;;;;;6.07;3.75;;;7.50;99.90;;;;;;5056641;28;20108;-55
2021/04/12 03:34:21;;;;;;;9.30;4.05;;;7.50;99.90;;;;;;5056679;28;20468;-48
2021/04/12 03:37:05;;;;;;;5.65;3.72;;;7.40;99.90;;;;;;5056600;28;20040;-51
2021/04/12 03:39:40;;;;;;;6.95;3.88;;;;;;;;;;5054731;28;20036;-54
2021/04/12 03:42:28;;;;;;;7.43;3.88;;;7.20;99.90;;;;;;5056479;28;20035;-47
2021/04/12 03:45:32;;;;;;;8.50;4.32;;;7.50;99.90;;;;;;5056432;28;20047;-53
2021/04/12 03:48:25;;;;;;;6.80;3.63;;;7.40;99.90;;;;;;5056397;28;20033;-53
2021/04/12 03:51:13;;;;;;;6.72;3.53;;;7.70;99.90;;;;;;5056224;28;20041;-53
2021/04/12 03:54:17;;;;;;;5.30;3.08;;;7.90;99.90;;;;;;5056225;28;20035;-54
2021/04/12 03:57:20;;;;;;;8.40;3.78;;;7.80;99.90;;;;;;5056070;28;20463;-53
2021/04/12 04:00:10;;;;;;;5.63;2.92;;;7.80;99.90;;;;;;5056077;28;20029;-56
2021/04/12 04:02:38;;;;;;;8.18;3.47;;;7.60;99.90;;;;;;5056313;28;20460;-50
2021/04/12 04:17:27;;;;;;;6.80;4.10;;;7.90;99.90;;;;;;5070762;28;20150;-47
2021/04/12 04:20:00;;;;;;;7.18;3.40;;;8.60;99.90;;;;;;5050709;28;20108;-49
2021/04/12 04:22:40;;;;;;;7.25;3.88;;;8.60;99.90;;;;;;5050871;28;20033;-51
2021/04/12 04:25:15;;;;;;;5.90;3.38;;;8.50;99.90;;;;;;5050312;28;20498;-51
2021/04/12 04:27:58;;;;;;;6.28;3.70;;;8.60;99.90;;;;;;5050759;28;20484;-48
2021/04/12 04:30:45;;;;;;;5.95;3.75;;;8.80;99.90;;;;;;5015568;28;20403;-47
2021/04/12 04:33:46;;;;;;;8.43;3.85;;;8.70;99.90;;;;;;5050176;28;20099;-51
2021/04/12 04:36:33;;;;;;;7.88;3.75;;;8.80;99.90;;;;;;4950310;29;20507;-49
2021/04/12 04:39:36;;;;;;;7.18;3.45;;;8.90;99.90;;;;;;4950306;29;20067;-53
2021/04/12 04:42:17;;;;;;;5.15;3.05;;;;;;;;;;4918259;29;20040;-50
2021/04/12 04:45:11;;;;;;;7.28;3.60;;;9.30;99.90;;;;;;4950107;29;20059;-49
2021/04/12 04:48:16;;;;;;;7.95;3.45;;;9.10;99.90;;;;;;4934212;29;20042;-52
2021/04/12 04:50:53;;;;;;;7.55;4.07;;;9.30;99.90;;;;;;4950388;29;20036;-51
2021/04/12 04:53:24;;;;;;;12.15;6.93;;;9.70;99.90;;;;;;4950038;29;20471;-48
2021/04/12 04:55:56;;;;;;;9.43;5.47;;;9.90;99.90;;;;;;4950167;29;20031;-51
2021/04/12 04:58:36;;;;;;;9.23;4.50;;;10.20;99.90;;;;;;4950095;29;20035;-51
2021/04/12 05:01:11;;;;;;;7.15;3.53;;;10.30;99.90;;;;;;4949671;29;20371;-50
2021/04/12 05:04:01;;;;;;;6.70;3.50;;;10.40;99.90;;;;;;4950241;29;20096;-49
2021/04/12 05:07:03;;;;;;;10.15;4.30;;;10.60;99.90;;;;;;4949655;29;20047;-45
2021/04/12 05:09:41;;;;;;;8.45;4.75;;;10.30;99.90;;;;;;4949894;29;20039;-52
2021/04/12 05:12:25;;;;;;;12.00;6.18;;;10.30;99.90;;;;;;4961153;28;20043;-51
2021/04/12 05:15:10;;;;;;;9.00;4.97;;;10.10;99.90;;;;;;5049401;28;20025;-50
2021/04/12 05:17:47;;;;;;;8.57;4.60;;;10.00;99.90;;;;;;5038987;28;20025;-46
2021/04/12 05:20:22;;;;;;;14.63;6.05;;;10.30;99.90;;;;;;5036159;28;20021;-50
2021/04/12 05:22:57;;;;;;;7.47;4.07;;;10.40;99.90;;;;;;5036467;28;20028;-47
2021/04/12 05:26:01;;;;;;;8.73;4.53;;;10.60;99.90;;;;;;5001463;28;20539;-48
2021/04/12 05:28:32;;;;;;;8.70;4.60;;;10.80;99.90;;;;;;4898582;29;20116;-48
2021/04/12 05:31:15;;;;;;;7.85;4.40;;;11.00;99.90;;;;;;4898600;29;20043;-48
2021/04/12 05:34:00;;;;;;;8.75;4.55;;;;;;;;;;4898863;29;20044;-54
2021/04/12 05:36:50;;;;;;;14.85;8.45;;;11.10;99.90;;;;;;4881034;29;20045;-46
2021/04/12 05:39:27;;;;;;;12.68;6.38;;;11.10;99.90;;;;;;4896532;29;20029;-49
2021/04/12 05:42:20;;;;;;;12.05;7.63;;;11.20;99.90;;;;;;4897893;29;20044;-52
2021/04/12 05:45:16;;;;;;;17.90;10.18;;;11.20;99.90;;;;;;4879205;29;20041;-48
2021/04/12 05:48:19;;;;;;;12.05;7.53;;;11.00;99.90;;;;;;4879406;29;20062;-48
2021/04/12 05:51:22;;;;;;;11.07;6.40;;;10.80;99.90;;;;;;4879056;29;20040;-51
2021/04/12 05:54:06;;;;;;;12.57;5.85;;;10.90;99.90;;;;;;4890780;29;20127;-49
2021/04/12 05:56:52;;;;;;;9.30;5.82;;;10.90;99.90;;;;;;4865848;29;20358;-54
2021/04/12 05:59:36;;;;;;;10.93;6.97;;;11.00;99.90;;;;;;4895867;29;20043;-53
2021/04/12 06:02:46;;;;;;;13.88;7.00;;;11.10;99.90;;;;;;4878933;29;20037;-49
2021/04/12 06:05:33;;;;;;;7.88;5.15;;;11.40;99.90;;;;;;4891187;29;20043;-46
2021/04/12 06:08:23;;;;;;;11.70;5.45;;;11.50;99.90;;;;;;4954033;28;20046;-57
2021/04/12 06:11:26;;;;;;;11.55;6.07;;;11.50;99.90;;;;;;4954554;29;20395;-53
2021/04/12 06:14:10;;;;;;;;;;;11.70;99.90;;;;;;4954611;29;20176;-47
2021/04/12 06:16:53;;;;;;;9.63;5.68;;;12.10;99.90;;;;;;4954485;29;19919;-56
2021/04/12 06:19:40;;;;;;;13.48;6.70;;;12.40;99.90;;;;;;4954743;29;20051;-50
2021/04/12 06:22:18;;;;;;;9.35;5.40;;;12.80;99.90;;;;;;4954454;29;20024;-54
2021/04/12 06:24:53;;;;;;;8.05;4.32;;;;;;;;;;4954362;29;20055;-47
2021/04/12 06:27:44;;;;;;;8.82;5.35;;;13.80;99.90;;;;;;4967680;28;20069;-48
2021/04/12 06:30:10;;;;;;;9.95;5.88;;;;;;;;;;4956664;28;20401;-44
2021/04/12 06:32:51;;;;;;;9.95;5.80;;;;;;;;;;4973744;28;20117;-52
2021/04/12 06:35:19;;;;;;;14.25;7.00;;;14.60;99.90;;;;;;4973700;28;20487;-47
2021/04/12 06:38:19;;;;;;;9.73;5.10;;;15.00;99.90;;;;;;4973088;28;20157;-47
2021/04/12 06:41:01;;;;;;;10.18;4.95;;;;;;;;;;5034572;28;20112;-53
2021/04/12 06:43:45;;;;;;;13.30;5.43;;;15.50;99.90;;;;;;5034529;28;20029;-47
2021/04/12 06:46:26;;;;;;;10.25;5.15;;;15.60;99.90;;;;;;5034358;28;20037;-51
2021/04/12 06:48:52;;;;;;;8.77;4.72;;;;;;;;;;5034491;28;20026;-49
2021/04/12 06:51:37;;;;;;;8.23;4.68;;;;;;;;;;5034309;28;20067;-47
2021/04/12 06:54:21;;;;;;;10.52;4.53;;;;;;;;;;5034235;28;20049;-50
2021/04/12 06:57:12;;;;;;;8.88;4.88;;;;;;;;;;5034132;28;20025;-52
2021/04/12 06:59:59;;;;;;;8.15;5.30;;;16.20;99.90;;;;;;5033983;28;20035;-50
2021/04/12 07:02:43;;;;;;;10.77;4.90;;;16.30;99.90;;;;;;5033608;28;20030;-49
2021/04/12 07:05:18;;;;;;;7.72;4.60;;;16.10;99.90;;;;;;5033357;28;20030;-48
2021/04/12 07:08:02;;;;;;;7.68;3.88;;;16.30;99.90;;;;;;5033912;28;20110;-51
2021/04/12 07:10:28;;;;;;;9.05;4.63;;;16.40;99.90;;;;;;4999171;28;20060;-51
2021/04/12 07:13:06;;;;;;;7.70;4.43;;;;;;;;;;5028028;28;20327;-51
2021/04/12 07:15:51;;;;;;;6.97;4.53;;;;;;;;;;5028123;28;20049;-52
2021/04/12 07:18:41;;;;;;;7.40;4.28;;;17.20;99.90;;;;;;5033910;28;20483;-50
2021/04/12 07:21:51;;;;;;;8.18;4.32;;;17.20;99.90;;;;;;4998621;28;20124;-48
2021/04/12 07:24:38;;;;;;;5.60;4.05;;;;;;;;;;5033536;28;20460;-49
2021/04/12 07:27:41;;;;;;;6.40;3.75;;;17.70;99.90;;;;;;5033692;28;20195;-47
2021/04/12 07:30:26;;;;;;;9.18;5.15;;;;;;;;;;5033554;28;20025;-46
2021/04/12 07:33:00;;;;;;;6.63;3.58;;;18.00;99.90;;;;;;5033925;28;20038;-47
2021/04/12 07:35:56;;;;;;;11.48;5.95;;;;;;;;;;5018625;28;20029;-46
2021/04/12 07:38:58;;;;;;;14.05;7.72;;;18.30;99.90;;;;;;4937110;29;20458;-48
2021/04/12 07:41:48;;;;;;;5.00;3.47;;;;;;;;;;4937214;29;20079;-48
2021/04/12 07:44:51;;;;;;;6.30;3.45;;;18.80;99.90;;;;;;4952895;29;20035;-48
2021/04/12 07:47:17;;;;;;;;;;;;;;;;;;4953389;29;20053;-49
2021/04/12 07:49:55;;;;;;;6.03;3.78;;;;;;;;;;4953231;29;20032;-49
2021/04/12 07:52:32;;;;;;;7.70;3.63;;;19.60;99.90;;;;;;4920766;29;20442;-47
2021/04/12 07:55:36;;;;;;;9.15;3.92;;;;;;;;;;4953312;29;20111;-48
2021/04/12 07:58:11;;;;;;;6.63;3.67;;;;;;;;;;4933831;29;20028;-48
2021/04/12 08:00:40;;;;;;;6.78;3.80;;;;;;;;;;4934148;29;20034;-48
2021/04/12 08:03:27;;;;;;;6.32;3.50;;;20.60;99.90;;;;;;4934123;29;20086;-48
2021/04/12 08:06:20;;;;;;;7.93;3.80;;;21.30;99.90;;;;;;4933504;29;20067;-49
2021/04/12 08:09:04;;;;;;;6.00;3.83;;;;;;;;;;4933962;29;20036;-48
2021/04/12 08:12:00;;;;;;;7.75;3.65;;;22.10;99.90;;;;;;4934171;29;20034;-50
2021/04/12 08:14:59;;;;;;;8.55;4.07;;;22.30;98.50;;;;;;4940180;29;20047;-48
2021/04/12 08:17:37;;;;;;;5.28;2.88;;;22.50;95.60;;;;;;4920538;29;20051;-49
2021/04/12 08:20:21;;;;;;;5.93;3.35;;;22.10;93.20;;;;;;4938825;29;20083;-48
2021/04/12 08:23:23;;;;;;;6.38;3.17;;;21.80;93.30;;;;;;4950082;29;20395;-48
2021/04/12 08:26:26;;;;;;;7.70;3.13;;;22.30;94.80;;;;;;4952375;29;20098;-51
2021/04/12 08:29:29;;;;;;;4.35;2.45;;;22.50;93.10;;;;;;4993976;28;20091;-48
2021/04/12 08:32:02;;;;;;;4.22;2.20;;;;;;;;;;4981951;28;20037;-48
2021/04/12 08:34:47;;;;;;;6.75;2.60;;;;;;;;;;5032853;28;20376;-48
2021/04/12 08:37:15;;;;;;;3.55;1.70;;;;;;;;;;5032890;28;20034;-49
2021/04/12 08:40:00;;;;;;;3.30;1.98;;;;;;;;;;5032992;28;20435;-49
2021/04/12 08:42:26;;;;;;;3.25;1.98;;;23.20;80.70;;;;;;4981507;28;20049;-48
2021/04/12 08:45:06;;;;;;;3.63;2.00;;;;;;;;;;5032974;28;20025;-48
2021/04/12 08:47:44;;;;;;;2.97;1.60;;;;;;;;;;4971961;28;20042;-50
2021/04/12 08:50:15;;;;;;;3.63;1.67;;;23.90;87.50;;;;;;4971324;28;20038;-49
2021/04/12 08:53:17;;;;;;;2.38;1.52;;;23.60;73.70;;;;;;4958087;28;20031;-47
2021/04/12 08:55:50;;;;;;;3.72;1.63;;;23.70;72.10;;;;;;4974718;28;20047;-51
2021/04/12 08:58:34;;;;;;;4.70;1.35;;;;;;;;;;4973833;28;20093;-51
2021/04/12 09:01:27;;;;;;;6.20;1.55;;;23.70;91.00;;;;;;4974341;28;20042;-52
2021/04/12 09:04:29;;;;;;;3.08;1.40;;;23.50;90.30;;;;;;4967314;28;20118;-50
2021/04/12 09:07:20;;;;;;;;;;;23.60;90.30;;;;;;4955219;29;20054;-51
2021/04/12 09:10:01;;;;;;;2.97;1.25;;;;;;;;;;4954583;29;19906;-51
2021/04/12 09:12:39;;;;;;;2.13;1.37;;;;;;;;;;4954387;29;20459;-49
2021/04/12 09:15:41;;;;;;;2.70;1.35;;;24.60;67.20;;;;;;4958495;28;20138;-50
2021/04/12 09:18:10;;;;;;;2.58;1.40;;;;;;;;;;4980295;28;20047;-51
2021/04/12 09:20:52;;;;;;;3.83;1.55;;;;;;;;;;4995307;28;20030;-51
2021/04/12 09:23:47;;;;;;;3.85;1.45;;;25.50;76.40;;;;;;4976891;28;20038;-48
2021/04/12 09:26:38;;;;;;;3.15;1.50;;;25.20;64.50;;;;;;4995230;28;20038;-47
2021/04/12 09:29:41;;;;;;;4.25;1.92;;;24.80;78.30;;;;;;4963677;28;20045;-53
2021/04/12 09:32:41;;;;;;;2.45;1.52;;;24.10;66.80;;;;;;4980254;28;20477;-50
2021/04/12 09:35:22;;;;;;;2.58;1.15;;;24.00;67.10;;;;;;5014536;28;20026;-51
2021/04/12 09:38:18;;;;;;;1.85;1.23;;;23.40;66.10;;;;;;5014981;28;20022;-50
2021/04/12 09:41:21;;;;;;;2.88;1.55;;;23.40;73.60;;;;;;5014974;28;20357;-48
2021/04/12 09:44:07;;;;;;;2.60;1.90;;;23.60;77.30;;;;;;5014901;28;20100;-51
2021/04/12 09:47:12;;;;;;;7.07;2.47;;;23.40;72.20;;;;;;5014620;28;20045;-50
2021/04/12 09:49:57;;;;;;;3.70;1.75;;;23.00;66.40;;;;;;4934239;29;20047;-51
2021/04/12 09:52:37;;;;;;;2.63;1.30;;;23.30;68.20;;;;;;4934711;29;20048;-50
2021/04/12 09:55:30;;;;;;;2.70;1.70;;;23.40;66.40;;;;;;4934622;29;20486;-51
2021/04/12 09:58:14;;;;;;;4.00;2.03;;;24.20;75.70;;;;;;4935614;29;20436;-51
2021/04/12 10:00:53;;;;;;;4.40;2.00;;;25.00;68.40;;;;;;4915480;29;20075;-50
2021/04/12 10:03:39;;;;;;;3.92;1.90;;;25.30;76.60;;;;;;4883754;29;20043;-52
2021/04/12 10:06:20;;;;;;;5.70;1.73;;;25.10;65.10;;;;;;4915477;29;20040;-48
2021/04/12 10:09:06;;;;;;;6.38;1.95;;;25.40;64.00;;;;;;4915501;29;20452;-49
2021/04/12 10:11:50;;;;;;;6.43;1.90;;;25.50;64.10;;;;;;4915451;29;20472;-50
2021/04/12 10:14:17;;;;;;;3.88;2.05;;;26.00;62.10;;;;;;4916752;29;20044;-50
2021/04/12 10:17:03;;;;;;;4.95;2.60;;;;;;;;;;4885151;29;20087;-52
2021/04/12 10:19:42;;;;;;;3.53;1.90;;;26.60;60.30;;;;;;4909220;29;20051;-50
2021/04/12 10:22:14;;;;;;;5.22;1.88;;;26.30;61.30;;;;;;4916542;29;20535;-49
2021/04/12 10:25:02;;;;;;;4.10;1.73;;;26.50;61.50;;;;;;4900446;29;20075;-48
2021/04/12 10:27:39;;;;;;;2.70;1.70;;;26.60;61.10;;;;;;4964223;28;20029;-48
2021/04/12 10:30:19;;;;;;;5.00;2.22;;;;;;;;;;5015081;28;20037;-48
2021/04/12 10:32:54;;;;;;;3.63;2.35;;;27.50;67.50;;;;;;5017682;28;20029;-48
2021/04/12 10:36:02;;;;;;;8.90;2.33;;;27.80;61.30;;;;;;5033219;28;20022;-48
2021/04/12 10:38:34;;;;;;;3.75;1.90;;;27.70;64.50;;;;;;4950879;28;20035;-48
2021/04/12 10:41:26;;;;;;;4.55;1.80;;;;;;;;;;4973341;28;20050;-49
2021/04/12 10:43:52;;;;;;;;;;;;;;;;;;4957281;28;20035;-49
2021/04/12 10:46:21;;;;;;;6.07;2.63;;;;;;;;;;4957043;28;19918;-49
2021/04/12 10:49:07;;;;;;;4.38;1.95;;;;;;;;;;4973147;28;20031;-48
2021/04/12 10:51:46;;;;;;;4.60;2.20;;;;;;;;;;4973266;28;20113;-49
2021/04/12 10:54:21;;;;;;;9.55;4.78;;;;;;;;;;4969526;28;20118;-49
2021/04/12 10:56:53;;;;;;;5.45;2.00;;;;;;;;;;4953791;29;20537;-50
2021/04/12 10:59:52;;;;;;;3.67;2.25;;;28.10;57.80;;;;;;4954075;29;20041;-48
2021/04/12 11:02:23;;;;;;;6.00;2.65;;;;;;;;;;4953965;28;20159;-48
2021/04/12 11:04:50;;;;;;;6.55;1.90;;;;;;;;;;4953520;29;20042;-48
2021/04/12 11:07:36;;;;;;;3.50;1.75;;;;;;;;;;4953995;29;20118;-48
2021/04/12 11:10:02;;;;;;;5.45;3.10;;;;;;;;;;4953296;29;20475;-48
2021/04/12 11:12:40;;;;;;;4.28;1.60;;;;;;;;;;4963397;28;20471;-48
2021/04/12 11:15:25;;;;;;;5.63;3.20;;;;;;;;;;4968820;28;20137;-47
2021/04/12 11:18:22;;;;;;;6.15;3.00;;;27.20;85.70;;;;;;4953015;29;20069;-48
2021/04/12 11:21:26;;;;;;;8.90;3.00;;;27.70;89.50;;;;;;4953130;29;20471;-48
2021/04/12 11:24:19;;;;;;;5.07;2.50;;;28.30;70.30;;;;;;4953519;29;20037;-49
2021/04/12 11:27:21;;;;;;;4.85;2.45;;;27.70;67.00;;;;;;4919675;29;20581;-47
2021/04/12 11:30:19;;;;;;;3.38;2.08;;;28.10;56.70;;;;;;4952150;29;20035;-49
2021/04/12 11:32:56;;;;;;;3.38;1.48;;;28.50;63.10;;;;;;4951807;29;20031;-48
2021/04/12 11:35:48;;;;;;;8.38;2.20;;;28.50;63.80;;;;;;4952144;29;20041;-48
2021/04/12 11:38:25;;;;;;;3.13;1.55;;;28.30;61.20;;;;;;4944256;29;20039;-49
2021/04/12 11:41:09;;;;;;;6.65;2.95;;;28.20;60.80;;;;;;4951334;29;20082;-48
2021/04/12 11:43:38;;;;;;;4.15;1.90;;;28.10;55.20;;;;;;4951937;29;20027;-48
2021/04/12 11:46:19;;;;;;;6.38;1.83;;;28.10;54.20;;;;;;4954934;28;20089;-48
2021/04/12 11:48:53;;;;;;;4.22;2.35;;;27.70;54.10;;;;;;5012448;28;20112;-48
2021/04/12 11:51:45;;;;;;;3.45;1.42;;;27.90;55.80;;;;;;5012537;28;20488;-48
2021/04/12 11:54:13;;;;;;;;;;;;;;;;;;5013001;28;20500;-48
2021/04/12 11:56:43;;;;;;;6.70;1.90;;;28.30;90.20;;;;;;5012412;28;20008;-49
2021/04/12 11:59:29;;;;;;;2.85;2.17;;;28.60;75.40;;;;;;5012624;28;20107;-49
2021/04/12 12:02:32;;;;;;;5.35;1.48;;;28.60;71.30;;;;;;5011100;28;20041;-48
2021/04/12 12:05:31;;;;;;;4.22;1.25;;;28.10;69.00;;;;;;5010084;28;20396;-49
2021/04/12 12:08:02;;;;;;;2.47;1.25;;;;;;;;;;4917979;29;20051;-49
2021/04/12 12:10:31;;;;;;;3.80;1.95;;;28.10;84.00;;;;;;4943537;29;20039;-47
2021/04/12 12:12:59;;;;;;;5.93;2.17;;;28.30;76.60;;;;;;4928431;29;20415;-49
2021/04/12 12:15:38;;;;;;;3.13;1.35;;;;;;;;;;4947810;28;20050;-49
2021/04/12 12:18:17;;;;;;;2.22;1.42;;;;;;;;;;4962096;28;20023;-49
2021/04/12 12:20:43;;;;;;;2.42;1.35;;;;;;;;;;4955418;28;20475;-48
2021/04/12 12:23:27;;;;;;;3.13;1.40;;;;;;;;;;4953116;29;20031;-48
2021/04/12 12:25:57;;;;;;;4.40;1.50;;;28.70;50.00;;;;;;4952525;28;20054;-48
2021/04/12 12:28:22;;;;;;;4.82;1.65;;;28.70;50.40;;;;;;4956512;29;20027;-48
2021/04/12 12:30:51;;;;;;;5.63;2.47;;;29.10;50.90;;;;;;4956556;29;20394;-48
2021/04/12 12:33:48;;;;;;;3.83;1.65;;;28.90;50.80;;;;;;4940268;29;20098;-49
2021/04/12 12:36:20;;;;;;;3.85;1.58;;;;;;;;;;4956655;29;20054;-49
2021/04/12 12:38:46;;;;;;;;;;;;;;;;;;4956099;29;20039;-49
2021/04/12 12:41:19;;;;;;;4.72;1.70;;;29.30;52.00;;;;;;4956553;29;19913;-48
2021/04/12 12:43:47;;;;;;;2.83;1.20;;;29.10;48.70;;;;;;4956576;28;20089;-48
2021/04/12 12:46:25;;;;;;;4.50;1.80;;;29.00;49.50;;;;;;4965418;28;20038;-49
2021/04/12 12:48:56;;;;;;;5.00;1.92;;;28.70;49.30;;;;;;5017275;28;20473;-49
2021/04/12 12:51:35;;;;;;;3.05;1.17;;;28.00;47.20;;;;;;5016606;28;20501;-49
2021/04/12 12:54:07;;;;;;;4.78;1.92;;;27.80;47.80;;;;;;4965459;28;20030;-49
2021/04/12 12:56:37;;;;;;;8.82;3.42;;;27.80;48.00;;;;;;4967249;28;20470;-48
2021/04/12 12:59:06;;;;;;;11.73;5.53;;;27.70;47.90;;;;;;4982126;28;20072;-49
2021/04/12 13:01:39;;;;;;;2.47;1.42;;;;;;;;;;5016632;28;20032;-49
2021/04/12 13:04:14;;;;;;;7.47;2.03;;;;;;;;;;5016761;28;20029;-49
2021/04/12 13:06:41;;;;;;;7.03;1.50;;;28.10;48.70;;;;;;4981918;28;20077;-48
2021/04/12 13:09:30;;;;;;;9.13;2.60;;;28.10;49.40;;;;;;5016049;28;20499;-49
2021/04/12 13:12:05;;;;;;;9.10;3.15;;;;;;;;;;5016638;28;20613;-49
2021/04/12 13:14:38;;;;;;;5.95;2.60;;;28.60;87.30;;;;;;5016640;28;20113;-48
2021/04/12 13:17:32;;;;;;;3.78;1.65;;;28.80;71.10;;;;;;4947300;28;20544;-49
2021/04/12 13:20:16;;;;;;;6.13;1.92;;;;;;;;;;4962116;28;20042;-48
2021/04/12 13:22:48;;;;;;;4.65;1.95;;;;;;;;;;4996900;28;20038;-48
2021/04/12 13:25:35;;;;;;;6.28;1.83;;;;;;;;;;4996536;28;20035;-48
2021/04/12 13:28:22;;;;;;;4.22;2.17;;;26.90;48.70;;;;;;4996622;28;20034;-50
2021/04/12 13:31:12;;;;;;;3.17;1.50;;;26.90;50.80;;;;;;4996525;28;20153;-49
2021/04/12 13:33:46;;;;;;;7.40;2.63;;;26.80;51.50;;;;;;4977623;28;20046;-48
2021/04/12 13:36:43;;;;;;;3.63;1.58;;;26.90;50.40;;;;;;4996397;28;20026;-49
2021/04/12 13:39:18;;;;;;;4.35;1.60;;;26.90;50.30;;;;;;4968323;28;20477;-48
2021/04/12 13:41:47;;;;;;;3.50;1.70;;;26.60;49.40;;;;;;4992924;28;20362;-48
2021/04/12 13:44:22;;;;;;;4.45;1.83;;;26.50;49.70;;;;;;4953910;29;20042;-48
2021/04/12 13:46:52;;;;;;;4.65;2.03;;;26.50;50.20;;;;;;4969584;28;20046;-49
2021/04/12 13:49:26;;;;;;;4.50;1.63;;;26.60;50.40;;;;;;4953983;29;20039;-48
2021/04/12 13:52:02;;;;;;;8.73;3.30;;;26.70;50.30;;;;;;4954062;29;20027;-48
2021/04/12 13:54:30;;;;;;;3.60;1.95;;;26.70;49.90;;;;;;4937507;29;20431;-49
2021/04/12 13:57:05;;;;;;;3.25;1.50;;;26.40;48.30;;;;;;4953828;29;20035;-48
2021/04/12 13:59:39;;;;;;;14.30;7.18;;;26.70;48.20;;;;;;4953828;29;20527;-49
2021/04/12 14:02:16;;;;;;;5.95;3.35;;;26.90;49.20;;;;;;4953691;29;20042;-49
2021/04/12 14:04:48;;;;;;;12.25;5.78;;;26.80;48.70;;;;;;4953631;29;20042;-48
2021/04/12 14:07:24;;;;;;;5.88;2.75;;;27.00;49.10;;;;;;4953638;29;20046;-49
2021/04/12 14:10:04;;;;;;;3.58;1.55;;;27.10;48.90;;;;;;4963631;28;20540;-48
2021/04/12 14:12:36;;;;;;;4.15;1.85;;;27.20;50.70;;;;;;4971532;28;20030;-48
2021/04/12 14:15:07;;;;;;;4.78;1.77;;;27.30;51.60;;;;;;4986889;28;22204;-49
2021/04/12 14:17:43;;;;;;;2.20;1.27;;;27.50;51.40;;;;;;5002761;28;20040;-49
2021/04/12 14:20:32;;;;;;;3.08;1.40;;;27.80;50.70;;;;;;4962647;28;20038;-48
2021/04/12 14:23:02;;;;;;;1.80;1.00;;;27.90;49.50;;;;;;5008635;28;20038;-50
2021/04/12 14:25:37;;;;;;;3.90;1.45;;;28.00;49.60;;;;;;5006927;28;20396;-52
2021/04/12 14:28:13;;;;;;;1.92;1.40;;;27.80;48.20;;;;;;4985028;28;20130;-50
2021/04/12 14:30:48;;;;;;;2.28;1.17;;;27.50;48.50;;;;;;4959282;28;20114;-54
2021/04/12 14:33:28;;;;;;;3.47;1.52;;;27.60;46.80;;;;;;4991855;28;20042;-57
2021/04/12 14:36:11;;;;;;;2.97;1.42;;;27.50;47.90;;;;;;4991891;28;20548;-50
2021/04/12 14:38:40;;;;;;;2.55;1.30;;;27.30;48.80;;;;;;5008436;28;20112;-53
2021/04/12 14:41:23;;;;;;;4.57;1.20;;;27.20;47.80;;;;;;4992210;28;20030;-54
2021/04/12 14:44:29;;;;;;;2.90;1.30;;;27.00;47.60;;;;;;4991970;28;20525;-54
2021/04/12 14:46:58;;;;;;;2.92;1.17;;;26.90;47.50;;;;;;4986984;28;20066;-55
2021/04/12 14:49:33;;;;;;;3.80;1.17;;;27.20;46.90;;;;;;4990780;28;20058;-55